sensor_id;sensor_type;location;lat;lon;timestamp;temperature;humidity
59881;DHT22;45751;51.380;10.326;2024-03-02T00:00:26;7.30;99.90
59881;DHT22;45751;51.380;10.326;2024-03-02T00:02:52;7.30;99.90
59881;DHT22;45751;51.380;10.326;2024-03-02T00:05:21;7.30;99.90
59881;DHT22;45751;51.380;10.326;2024-03-02T00:07:55;7.30;99.90
59881;DHT22;45751;51.380;10.326;2024-03-02T00:10:26;7.30;99.90
59881;DHT22;45751;51.380;10.326;2024-03-02T00:12:57;7.30;99.90
59881;DHT22;45751;51.380;10.326;2024-03-02T00:17:56;7.40;99.90
59881;DHT22;45751;51.380;10.326;2024-03-02T00:20:23;7.30;99.90
59881;DHT22;45751;51.380;10.326;2024-03-02T00:22:51;7.40;99.90
59881;DHT22;45751;51.380;10.326;2024-03-02T00:25:18;7.30;99.90
59881;DHT22;45751;51.380;10.326;2024-03-02T00:27:47;7.30;99.90
59881;DHT22;45751;51.380;10.326;2024-03-02T00:33:06;7.30;99.90
59881;DHT22;45751;51.380;10.326;2024-03-02T00:35:33;7.30;99.90
59881;DHT22;45751;51.380;10.326;2024-03-02T00:38:06;7.40;99.90
59881;DHT22;45751;51.380;10.326;2024-03-02T00:40:32;7.30;99.90
59881;DHT22;45751;51.380;10.326;2024-03-02T00:42:59;7.20;99.90
59881;DHT22;45751;51.380;10.326;2024-03-02T00:45:25;7.20;99.90
59881;DHT22;45751;51.380;10.326;2024-03-02T00:47:52;7.20;99.90
59881;DHT22;45751;51.380;10.326;2024-03-02T00:50:19;7.20;99.90
59881;DHT22;45751;51.380;10.326;2024-03-02T00:52:45;7.20;99.90
59881;DHT22;45751;51.380;10.326;2024-03-02T00:55:14;7.20;99.90
59881;DHT22;45751;51.380;10.326;2024-03-02T00:57:39;7.20;99.90
59881;DHT22;45751;51.380;10.326;2024-03-02T01:00:06;7.10;99.90
59881;DHT22;45751;51.380;10.326;2024-03-02T01:02:35;7.10;99.90
59881;DHT22;45751;51.380;10.326;2024-03-02T01:05:01;7.10;99.90
59881;DHT22;45751;51.380;10.326;2024-03-02T01:07:27;7.10;99.90
59881;DHT22;45751;51.380;10.326;2024-03-02T01:09:52;7.10;99.90
59881;DHT22;45751;51.380;10.326;2024-03-02T01:12:18;7.10;99.90
59881;DHT22;45751;51.380;10.326;2024-03-02T01:14:44;7.10;99.90
59881;DHT22;45751;51.380;10.326;2024-03-02T01:17:10;7.10;99.90
59881;DHT22;45751;51.380;10.326;2024-03-02T01:19:36;7.00;99.90
59881;DHT22;45751;51.380;10.326;2024-03-02T01:22:02;7.00;99.90
59881;DHT22;45751;51.380;10.326;2024-03-02T01:24:28;7.00;99.90
59881;DHT22;45751;51.380;10.326;2024-03-02T01:26:53;7.00;99.90
59881;DHT22;45751;51.380;10.326;2024-03-02T01:29:19;7.10;99.90
59881;DHT22;45751;51.380;10.326;2024-03-02T01:31:45;7.10;99.90
59881;DHT22;45751;51.380;10.326;2024-03-02T01:34:11;7.00;99.90
59881;DHT22;45751;51.380;10.326;2024-03-02T01:36:38;7.00;99.90
59881;DHT22;45751;51.380;10.326;2024-03-02T01:39:03;7.10;99.90
59881;DHT22;45751;51.380;10.326;2024-03-02T01:41:34;7.00;99.90
59881;DHT22;45751;51.380;10.326;2024-03-02T01:44:00;6.90;99.90
59881;DHT22;45751;51.380;10.326;2024-03-02T01:46:25;7.00;99.90
59881;DHT22;45751;51.380;10.326;2024-03-02T01:48:51;6.90;99.90
59881;DHT22;45751;51.380;10.326;2024-03-02T01:51:17;6.90;99.90
59881;DHT22;45751;51.380;10.326;2024-03-02T01:53:43;6.90;99.90
59881;DHT22;45751;51.380;10.326;2024-03-02T01:56:08;6.90;99.90
59881;DHT22;45751;51.380;10.326;2024-03-02T01:58:34;7.00;99.90
59881;DHT22;45751;51.380;10.326;2024-03-02T02:01:00;6.90;99.90
59881;DHT22;45751;51.380;10.326;2024-03-02T02:03:26;6.90;99.90
59881;DHT22;45751;51.380;10.326;2024-03-02T02:05:51;6.90;99.90
59881;DHT22;45751;51.380;10.326;2024-03-02T02:08:17;6.90;99.90
59881;DHT22;45751;51.380;10.326;2024-03-02T02:10:43;6.90;99.90
59881;DHT22;45751;51.380;10.326;2024-03-02T02:13:09;6.80;99.90
59881;DHT22;45751;51.380;10.326;2024-03-02T02:15:35;6.80;99.90
59881;DHT22;45751;51.380;10.326;2024-03-02T02:18:02;6.80;99.90
59881;DHT22;45751;51.380;10.326;2024-03-02T02:20:29;6.80;99.90
59881;DHT22;45751;51.380;10.326;2024-03-02T02:23:03;6.90;99.90
59881;DHT22;45751;51.380;10.326;2024-03-02T02:25:31;6.80;99.90
59881;DHT22;45751;51.380;10.326;2024-03-02T02:27:57;6.80;99.90
59881;DHT22;45751;51.380;10.326;2024-03-02T02:30:27;6.80;99.90
59881;DHT22;45751;51.380;10.326;2024-03-02T02:32:53;6.80;99.90
59881;DHT22;45751;51.380;10.326;2024-03-02T02:35:19;6.80;99.90
59881;DHT22;45751;51.380;10.326;2024-03-02T02:37:48;6.80;99.90
59881;DHT22;45751;51.380;10.326;2024-03-02T02:40:15;6.80;99.90
59881;DHT22;45751;51.380;10.326;2024-03-02T02:42:41;6.70;99.90
59881;DHT22;45751;51.380;10.326;2024-03-02T02:45:07;6.80;99.90
59881;DHT22;45751;51.380;10.326;2024-03-02T02:47:33;6.80;99.90
59881;DHT22;45751;51.380;10.326;2024-03-02T02:50:06;6.70;99.90
59881;DHT22;45751;51.380;10.326;2024-03-02T02:52:32;6.70;99.90
59881;DHT22;45751;51.380;10.326;2024-03-02T02:54:59;6.70;99.90
59881;DHT22;45751;51.380;10.326;2024-03-02T02:57:25;6.80;99.90
59881;DHT22;45751;51.380;10.326;2024-03-02T02:59:50;6.70;99.90
59881;DHT22;45751;51.380;10.326;2024-03-02T03:02:16;6.70;99.90
59881;DHT22;45751;51.380;10.326;2024-03-02T03:04:42;6.60;99.90
59881;DHT22;45751;51.380;10.326;2024-03-02T03:07:07;6.60;99.90
59881;DHT22;45751;51.380;10.326;2024-03-02T03:09:33;6.60;99.90
59881;DHT22;45751;51.380;10.326;2024-03-02T03:12:02;6.60;99.90
59881;DHT22;45751;51.380;10.326;2024-03-02T03:14:28;6.60;99.90
59881;DHT22;45751;51.380;10.326;2024-03-02T03:16:54;6.60;99.90
59881;DHT22;45751;51.380;10.326;2024-03-02T03:19:19;6.60;99.90
59881;DHT22;45751;51.380;10.326;2024-03-02T03:21:45;6.60;99.90
59881;DHT22;45751;51.380;10.326;2024-03-02T03:24:11;6.60;99.90
59881;DHT22;45751;51.380;10.326;2024-03-02T03:26:37;6.60;99.90
59881;DHT22;45751;51.380;10.326;2024-03-02T03:29:02;6.60;99.90
59881;DHT22;45751;51.380;10.326;2024-03-02T03:31:29;6.50;99.90
59881;DHT22;45751;51.380;10.326;2024-03-02T03:33:55;6.60;99.90
59881;DHT22;45751;51.380;10.326;2024-03-02T03:36:20;6.50;99.90
59881;DHT22;45751;51.380;10.326;2024-03-02T03:38:46;6.50;99.90
59881;DHT22;45751;51.380;10.326;2024-03-02T03:41:12;6.50;99.90
59881;DHT22;45751;51.380;10.326;2024-03-02T03:43:38;6.50;99.90
59881;DHT22;45751;51.380;10.326;2024-03-02T03:46:03;6.50;99.90
59881;DHT22;45751;51.380;10.326;2024-03-02T03:48:29;6.50;99.90
59881;DHT22;45751;51.380;10.326;2024-03-02T03:50:56;6.50;99.90
59881;DHT22;45751;51.380;10.326;2024-03-02T03:53:22;6.50;99.90
59881;DHT22;45751;51.380;10.326;2024-03-02T03:55:48;6.50;99.90
59881;DHT22;45751;51.380;10.326;2024-03-02T03:58:17;6.50;99.90
59881;DHT22;45751;51.380;10.326;2024-03-02T04:00:44;6.50;99.90
59881;DHT22;45751;51.380;10.326;2024-03-02T04:03:10;6.60;99.90
59881;DHT22;45751;51.380;10.326;2024-03-02T04:05:35;6.50;99.90
59881;DHT22;45751;51.380;10.326;2024-03-02T04:08:01;6.50;99.90
59881;DHT22;45751;51.380;10.326;2024-03-02T04:10:27;6.50;99.90
59881;DHT22;45751;51.380;10.326;2024-03-02T04:12:53;6.50;99.90
59881;DHT22;45751;51.380;10.326;2024-03-02T04:15:18;6.50;99.90
59881;DHT22;45751;51.380;10.326;2024-03-02T04:17:45;6.50;99.90
59881;DHT22;45751;51.380;10.326;2024-03-02T04:20:11;6.50;99.90
59881;DHT22;45751;51.380;10.326;2024-03-02T04:22:38;6.50;99.90
59881;DHT22;45751;51.380;10.326;2024-03-02T04:25:04;6.50;99.90
59881;DHT22;45751;51.380;10.326;2024-03-02T04:27:30;6.50;99.90
59881;DHT22;45751;51.380;10.326;2024-03-02T04:29:57;6.50;99.90
59881;DHT22;45751;51.380;10.326;2024-03-02T04:32:23;6.50;99.90
59881;DHT22;45751;51.380;10.326;2024-03-02T04:34:49;6.50;99.90
59881;DHT22;45751;51.380;10.326;2024-03-02T04:37:14;6.50;99.90
59881;DHT22;45751;51.380;10.326;2024-03-02T04:39:40;6.50;99.90
59881;DHT22;45751;51.380;10.326;2024-03-02T04:42:06;6.50;99.90
59881;DHT22;45751;51.380;10.326;2024-03-02T04:44:32;6.50;99.90
59881;DHT22;45751;51.380;10.326;2024-03-02T04:46:57;6.50;99.90
59881;DHT22;45751;51.380;10.326;2024-03-02T04:49:23;6.50;99.90
59881;DHT22;45751;51.380;10.326;2024-03-02T04:51:49;6.50;99.90
59881;DHT22;45751;51.380;10.326;2024-03-02T04:54:15;6.50;99.90
59881;DHT22;45751;51.380;10.326;2024-03-02T04:56:41;6.50;99.90
59881;DHT22;45751;51.380;10.326;2024-03-02T04:59:24;6.50;99.90
59881;DHT22;45751;51.380;10.326;2024-03-02T05:01:50;6.50;99.90
59881;DHT22;45751;51.380;10.326;2024-03-02T05:04:16;6.50;99.90
59881;DHT22;45751;51.380;10.326;2024-03-02T05:06:41;6.40;99.90
59881;DHT22;45751;51.380;10.326;2024-03-02T05:09:08;6.50;99.90
59881;DHT22;45751;51.380;10.326;2024-03-02T05:11:34;6.40;99.90
59881;DHT22;45751;51.380;10.326;2024-03-02T05:14:06;6.40;99.90
59881;DHT22;45751;51.380;10.326;2024-03-02T05:16:35;6.40;99.90
59881;DHT22;45751;51.380;10.326;2024-03-02T05:19:02;6.40;99.90
59881;DHT22;45751;51.380;10.326;2024-03-02T05:21:28;6.40;99.90
59881;DHT22;45751;51.380;10.326;2024-03-02T05:23:54;6.40;99.90
59881;DHT22;45751;51.380;10.326;2024-03-02T05:26:19;6.40;99.90
59881;DHT22;45751;51.380;10.326;2024-03-02T05:28:45;6.30;99.90
59881;DHT22;45751;51.380;10.326;2024-03-02T05:31:11;6.30;99.90
59881;DHT22;45751;51.380;10.326;2024-03-02T05:33:40;6.30;99.90
59881;DHT22;45751;51.380;10.326;2024-03-02T05:36:07;6.20;99.90
59881;DHT22;45751;51.380;10.326;2024-03-02T05:38:37;6.30;99.90
59881;DHT22;45751;51.380;10.326;2024-03-02T05:41:03;6.40;99.90
59881;DHT22;45751;51.380;10.326;2024-03-02T05:43:29;6.20;99.90
59881;DHT22;45751;51.380;10.326;2024-03-02T05:45:55;6.20;99.90
59881;DHT22;45751;51.380;10.326;2024-03-02T05:48:20;6.20;99.90
59881;DHT22;45751;51.380;10.326;2024-03-02T05:50:46;6.20;99.90
59881;DHT22;45751;51.380;10.326;2024-03-02T05:53:12;6.30;99.90
59881;DHT22;45751;51.380;10.326;2024-03-02T05:55:38;6.10;99.90
59881;DHT22;45751;51.380;10.326;2024-03-02T05:58:03;6.10;99.90
59881;DHT22;45751;51.380;10.326;2024-03-02T06:00:35;6.10;99.90
59881;DHT22;45751;51.380;10.326;2024-03-02T06:03:01;6.10;99.90
59881;DHT22;45751;51.380;10.326;2024-03-02T06:05:29;6.10;99.90
59881;DHT22;45751;51.380;10.326;2024-03-02T06:07:54;6.10;99.90
59881;DHT22;45751;51.380;10.326;2024-03-02T06:10:20;6.00;99.90
59881;DHT22;45751;51.380;10.326;2024-03-02T06:12:46;6.00;99.90
59881;DHT22;45751;51.380;10.326;2024-03-02T06:15:12;6.00;99.90
59881;DHT22;45751;51.380;10.326;2024-03-02T06:17:38;5.90;99.90
59881;DHT22;45751;51.380;10.326;2024-03-02T06:20:04;5.90;99.90
59881;DHT22;45751;51.380;10.326;2024-03-02T06:22:30;5.90;99.90
59881;DHT22;45751;51.380;10.326;2024-03-02T06:24:55;5.90;99.90
59881;DHT22;45751;51.380;10.326;2024-03-02T06:27:21;5.90;99.90
59881;DHT22;45751;51.380;10.326;2024-03-02T06:29:47;6.00;99.90
59881;DHT22;45751;51.380;10.326;2024-03-02T06:32:14;5.90;99.90
59881;DHT22;45751;51.380;10.326;2024-03-02T06:34:40;5.90;99.90
59881;DHT22;45751;51.380;10.326;2024-03-02T06:37:05;5.90;99.90
59881;DHT22;45751;51.380;10.326;2024-03-02T06:39:31;5.90;99.90
59881;DHT22;45751;51.380;10.326;2024-03-02T06:41:59;5.90;99.90
59881;DHT22;45751;51.380;10.326;2024-03-02T06:44:26;5.90;99.90
59881;DHT22;45751;51.380;10.326;2024-03-02T06:46:51;5.90;99.90
59881;DHT22;45751;51.380;10.326;2024-03-02T06:49:17;5.90;99.90
59881;DHT22;45751;51.380;10.326;2024-03-02T06:51:44;5.90;99.90
59881;DHT22;45751;51.380;10.326;2024-03-02T06:54:13;5.90;99.90
59881;DHT22;45751;51.380;10.326;2024-03-02T06:56:38;5.90;99.90
59881;DHT22;45751;51.380;10.326;2024-03-02T06:59:04;6.00;99.90
59881;DHT22;45751;51.380;10.326;2024-03-02T07:01:30;6.00;99.90
59881;DHT22;45751;51.380;10.326;2024-03-02T07:03:56;6.00;99.90
59881;DHT22;45751;51.380;10.326;2024-03-02T07:06:22;6.00;99.90
59881;DHT22;45751;51.380;10.326;2024-03-02T07:08:48;6.00;99.90
59881;DHT22;45751;51.380;10.326;2024-03-02T07:11:13;6.00;99.90
59881;DHT22;45751;51.380;10.326;2024-03-02T07:13:39;6.00;99.90
59881;DHT22;45751;51.380;10.326;2024-03-02T07:16:05;6.10;99.90
59881;DHT22;45751;51.380;10.326;2024-03-02T07:18:36;6.10;99.90
59881;DHT22;45751;51.380;10.326;2024-03-02T07:21:07;6.20;99.90
59881;DHT22;45751;51.380;10.326;2024-03-02T07:23:33;6.20;99.90
59881;DHT22;45751;51.380;10.326;2024-03-02T07:25:59;6.20;99.90
59881;DHT22;45751;51.380;10.326;2024-03-02T07:28:27;6.20;99.90
59881;DHT22;45751;51.380;10.326;2024-03-02T07:31:03;6.20;99.90
59881;DHT22;45751;51.380;10.326;2024-03-02T07:33:33;6.20;99.90
59881;DHT22;45751;51.380;10.326;2024-03-02T07:36:00;6.30;99.90
59881;DHT22;45751;51.380;10.326;2024-03-02T07:38:27;6.30;99.90
59881;DHT22;45751;51.380;10.326;2024-03-02T07:40:53;6.30;99.90
59881;DHT22;45751;51.380;10.326;2024-03-02T07:43:20;6.30;99.90
59881;DHT22;45751;51.380;10.326;2024-03-02T07:45:46;6.30;99.90
59881;DHT22;45751;51.380;10.326;2024-03-02T07:48:12;6.40;99.90
59881;DHT22;45751;51.380;10.326;2024-03-02T07:50:38;6.40;99.90
59881;DHT22;45751;51.380;10.326;2024-03-02T07:53:05;6.40;99.90
59881;DHT22;45751;51.380;10.326;2024-03-02T07:55:31;6.40;99.90
59881;DHT22;45751;51.380;10.326;2024-03-02T07:57:57;6.40;99.90
59881;DHT22;45751;51.380;10.326;2024-03-02T08:00:23;6.50;99.90
59881;DHT22;45751;51.380;10.326;2024-03-02T08:02:50;6.40;99.90
59881;DHT22;45751;51.380;10.326;2024-03-02T08:05:19;6.50;99.90
59881;DHT22;45751;51.380;10.326;2024-03-02T08:07:45;6.50;99.90
59881;DHT22;45751;51.380;10.326;2024-03-02T08:10:12;6.50;99.90
59881;DHT22;45751;51.380;10.326;2024-03-02T08:12:37;6.60;99.90
59881;DHT22;45751;51.380;10.326;2024-03-02T08:15:04;6.60;99.90
59881;DHT22;45751;51.380;10.326;2024-03-02T08:17:30;6.60;99.90
59881;DHT22;45751;51.380;10.326;2024-03-02T08:19:56;6.60;99.90
59881;DHT22;45751;51.380;10.326;2024-03-02T08:22:23;6.70;99.90
59881;DHT22;45751;51.380;10.326;2024-03-02T08:24:51;6.80;99.90
59881;DHT22;45751;51.380;10.326;2024-03-02T08:27:17;6.70;99.90
59881;DHT22;45751;51.380;10.326;2024-03-02T08:29:44;6.80;99.90
59881;DHT22;45751;51.380;10.326;2024-03-02T08:32:10;6.80;99.90
59881;DHT22;45751;51.380;10.326;2024-03-02T08:34:36;6.80;99.90
59881;DHT22;45751;51.380;10.326;2024-03-02T08:37:02;6.90;99.90
59881;DHT22;45751;51.380;10.326;2024-03-02T08:39:28;6.90;99.90
59881;DHT22;45751;51.380;10.326;2024-03-02T08:41:54;6.90;99.90
59881;DHT22;45751;51.380;10.326;2024-03-02T08:44:20;7.00;99.90
59881;DHT22;45751;51.380;10.326;2024-03-02T08:46:47;7.10;99.90
59881;DHT22;45751;51.380;10.326;2024-03-02T08:49:13;7.10;99.90
59881;DHT22;45751;51.380;10.326;2024-03-02T08:51:39;7.10;99.90
59881;DHT22;45751;51.380;10.326;2024-03-02T08:54:04;7.20;99.90
59881;DHT22;45751;51.380;10.326;2024-03-02T08:56:31;7.20;99.90
59881;DHT22;45751;51.380;10.326;2024-03-02T08:58:57;7.30;99.90
59881;DHT22;45751;51.380;10.326;2024-03-02T09:01:23;7.30;99.90
59881;DHT22;45751;51.380;10.326;2024-03-02T09:03:48;7.40;99.90
59881;DHT22;45751;51.380;10.326;2024-03-02T09:06:15;7.40;99.90
59881;DHT22;45751;51.380;10.326;2024-03-02T09:08:43;7.50;99.90
59881;DHT22;45751;51.380;10.326;2024-03-02T09:11:10;7.60;99.90
59881;DHT22;45751;51.380;10.326;2024-03-02T09:13:38;7.60;99.90
59881;DHT22;45751;51.380;10.326;2024-03-02T09:16:04;7.60;99.90
59881;DHT22;45751;51.380;10.326;2024-03-02T09:18:31;7.60;99.90
59881;DHT22;45751;51.380;10.326;2024-03-02T09:20:56;7.70;99.90
59881;DHT22;45751;51.380;10.326;2024-03-02T09:23:22;7.70;99.90
59881;DHT22;45751;51.380;10.326;2024-03-02T09:25:48;7.80;99.90
59881;DHT22;45751;51.380;10.326;2024-03-02T09:28:16;7.80;99.90
59881;DHT22;45751;51.380;10.326;2024-03-02T09:30:41;7.80;99.90
59881;DHT22;45751;51.380;10.326;2024-03-02T09:33:07;7.80;99.90
59881;DHT22;45751;51.380;10.326;2024-03-02T09:35:33;7.90;99.90
59881;DHT22;45751;51.380;10.326;2024-03-02T09:37:58;7.90;99.90
59881;DHT22;45751;51.380;10.326;2024-03-02T09:40:24;7.90;99.90
59881;DHT22;45751;51.380;10.326;2024-03-02T09:42:51;8.00;99.90
59881;DHT22;45751;51.380;10.326;2024-03-02T09:45:24;8.00;99.90
59881;DHT22;45751;51.380;10.326;2024-03-02T09:47:50;8.00;99.90
59881;DHT22;45751;51.380;10.326;2024-03-02T09:50:16;8.10;99.90
59881;DHT22;45751;51.380;10.326;2024-03-02T09:52:43;8.10;99.90
59881;DHT22;45751;51.380;10.326;2024-03-02T09:55:09;8.10;99.90
59881;DHT22;45751;51.380;10.326;2024-03-02T09:57:35;8.10;99.90
59881;DHT22;45751;51.380;10.326;2024-03-02T10:00:01;8.10;99.90
59881;DHT22;45751;51.380;10.326;2024-03-02T10:02:27;8.20;99.90
59881;DHT22;45751;51.380;10.326;2024-03-02T10:04:52;8.30;99.90
59881;DHT22;45751;51.380;10.326;2024-03-02T10:07:19;8.40;99.90
59881;DHT22;45751;51.380;10.326;2024-03-02T10:09:46;8.30;99.90
59881;DHT22;45751;51.380;10.326;2024-03-02T10:12:14;8.40;99.90
59881;DHT22;45751;51.380;10.326;2024-03-02T10:14:41;8.40;99.90
59881;DHT22;45751;51.380;10.326;2024-03-02T10:17:09;8.50;99.90
59881;DHT22;45751;51.380;10.326;2024-03-02T10:19:36;8.50;99.90
59881;DHT22;45751;51.380;10.326;2024-03-02T10:22:03;8.60;99.90
59881;DHT22;45751;51.380;10.326;2024-03-02T10:24:41;8.60;99.90
59881;DHT22;45751;51.380;10.326;2024-03-02T10:27:18;8.70;99.90
59881;DHT22;45751;51.380;10.326;2024-03-02T10:29:48;8.70;99.90
59881;DHT22;45751;51.380;10.326;2024-03-02T10:32:15;8.80;99.90
59881;DHT22;45751;51.380;10.326;2024-03-02T10:34:44;8.80;99.90
59881;DHT22;45751;51.380;10.326;2024-03-02T10:37:11;8.80;99.70
59881;DHT22;45751;51.380;10.326;2024-03-02T10:39:38;8.90;99.50
59881;DHT22;45751;51.380;10.326;2024-03-02T10:42:07;8.90;99.40
59881;DHT22;45751;51.380;10.326;2024-03-02T10:44:33;8.90;99.60
59881;DHT22;45751;51.380;10.326;2024-03-02T10:47:02;9.00;99.70
59881;DHT22;45751;51.380;10.326;2024-03-02T10:49:30;9.00;99.80
59881;DHT22;45751;51.380;10.326;2024-03-02T10:52:00;9.00;99.60
59881;DHT22;45751;51.380;10.326;2024-03-02T10:54:27;9.00;99.70
59881;DHT22;45751;51.380;10.326;2024-03-02T10:56:57;9.00;99.70
59881;DHT22;45751;51.380;10.326;2024-03-02T10:59:37;9.10;99.60
59881;DHT22;45751;51.380;10.326;2024-03-02T11:02:12;9.10;99.30
59881;DHT22;45751;51.380;10.326;2024-03-02T11:04:39;9.10;99.10
59881;DHT22;45751;51.380;10.326;2024-03-02T11:07:10;9.10;99.30
59881;DHT22;45751;51.380;10.326;2024-03-02T11:09:57;9.20;99.10
59881;DHT22;45751;51.380;10.326;2024-03-02T11:12:39;9.20;98.80
59881;DHT22;45751;51.380;10.326;2024-03-02T11:15:17;9.30;98.80
59881;DHT22;45751;51.380;10.326;2024-03-02T11:17:44;9.30;99.10
59881;DHT22;45751;51.380;10.326;2024-03-02T11:20:10;9.40;99.40
59881;DHT22;45751;51.380;10.326;2024-03-02T11:22:36;9.40;99.50
59881;DHT22;45751;51.380;10.326;2024-03-02T11:25:02;9.40;99.20
59881;DHT22;45751;51.380;10.326;2024-03-02T11:28:07;9.50;98.30
59881;DHT22;45751;51.380;10.326;2024-03-02T11:33:03;9.50;97.50
59881;DHT22;45751;51.380;10.326;2024-03-02T11:35:41;9.60;97.60
59881;DHT22;45751;51.380;10.326;2024-03-02T11:38:14;9.60;97.70
59881;DHT22;45751;51.380;10.326;2024-03-02T11:40:40;9.70;97.80
59881;DHT22;45751;51.380;10.326;2024-03-02T11:43:07;9.80;97.80
59881;DHT22;45751;51.380;10.326;2024-03-02T11:45:33;9.90;97.40
59881;DHT22;45751;51.380;10.326;2024-03-02T11:48:00;9.90;97.50
59881;DHT22;45751;51.380;10.326;2024-03-02T11:50:49;10.00;97.60
59881;DHT22;45751;51.380;10.326;2024-03-02T11:53:15;10.10;97.80
59881;DHT22;45751;51.380;10.326;2024-03-02T11:55:41;10.20;97.30
59881;DHT22;45751;51.380;10.326;2024-03-02T11:58:09;10.30;97.60
59881;DHT22;45751;51.380;10.326;2024-03-02T12:00:35;10.30;96.60
59881;DHT22;45751;51.380;10.326;2024-03-02T12:03:05;10.40;96.80
59881;DHT22;45751;51.380;10.326;2024-03-02T12:05:31;10.50;96.60
59881;DHT22;45751;51.380;10.326;2024-03-02T12:08:05;10.60;96.30
59881;DHT22;45751;51.380;10.326;2024-03-02T12:10:32;10.70;95.50
59881;DHT22;45751;51.380;10.326;2024-03-02T12:12:59;10.70;94.30
59881;DHT22;45751;51.380;10.326;2024-03-02T12:15:43;10.80;93.60
59881;DHT22;45751;51.380;10.326;2024-03-02T12:18:09;10.80;93.10
59881;DHT22;45751;51.380;10.326;2024-03-02T12:20:35;10.90;93.00
59881;DHT22;45751;51.380;10.326;2024-03-02T12:23:02;10.90;92.50
59881;DHT22;45751;51.380;10.326;2024-03-02T12:25:31;11.00;91.60
59881;DHT22;45751;51.380;10.326;2024-03-02T12:28:00;11.00;91.30
59881;DHT22;45751;51.380;10.326;2024-03-02T12:30:29;11.00;91.50
59881;DHT22;45751;51.380;10.326;2024-03-02T12:32:58;11.10;91.40
59881;DHT22;45751;51.380;10.326;2024-03-02T12:35:25;11.20;91.40
59881;DHT22;45751;51.380;10.326;2024-03-02T12:37:52;11.20;91.20
59881;DHT22;45751;51.380;10.326;2024-03-02T12:40:19;11.30;91.10
59881;DHT22;45751;51.380;10.326;2024-03-02T12:42:46;11.30;90.70
59881;DHT22;45751;51.380;10.326;2024-03-02T12:45:13;11.30;90.00
59881;DHT22;45751;51.380;10.326;2024-03-02T12:47:40;11.40;88.20
59881;DHT22;45751;51.380;10.326;2024-03-02T12:50:07;11.40;88.40
59881;DHT22;45751;51.380;10.326;2024-03-02T12:52:33;11.50;88.70
59881;DHT22;45751;51.380;10.326;2024-03-02T12:55:03;11.50;87.80
59881;DHT22;45751;51.380;10.326;2024-03-02T12:57:33;11.50;88.00
59881;DHT22;45751;51.380;10.326;2024-03-02T13:00:00;11.60;86.70
59881;DHT22;45751;51.380;10.326;2024-03-02T13:02:30;11.70;86.80
59881;DHT22;45751;51.380;10.326;2024-03-02T13:04:58;11.90;86.20
59881;DHT22;45751;51.380;10.326;2024-03-02T13:07:24;12.00;83.90
59881;DHT22;45751;51.380;10.326;2024-03-02T13:09:51;12.00;80.80
59881;DHT22;45751;51.380;10.326;2024-03-02T13:12:17;12.10;80.50
59881;DHT22;45751;51.380;10.326;2024-03-02T13:14:44;12.20;80.20
59881;DHT22;45751;51.380;10.326;2024-03-02T13:17:10;12.30;80.00
59881;DHT22;45751;51.380;10.326;2024-03-02T13:19:36;12.40;78.30
59881;DHT22;45751;51.380;10.326;2024-03-02T13:22:01;12.50;77.10
59881;DHT22;45751;51.380;10.326;2024-03-02T13:24:29;12.60;75.00
59881;DHT22;45751;51.380;10.326;2024-03-02T13:26:55;12.70;73.70
59881;DHT22;45751;51.380;10.326;2024-03-02T13:29:24;12.70;72.70
59881;DHT22;45751;51.380;10.326;2024-03-02T13:31:50;12.70;72.60
59881;DHT22;45751;51.380;10.326;2024-03-02T13:34:16;12.70;71.20
59881;DHT22;45751;51.380;10.326;2024-03-02T13:36:42;12.70;71.50
59881;DHT22;45751;51.380;10.326;2024-03-02T13:39:08;12.80;71.10
59881;DHT22;45751;51.380;10.326;2024-03-02T13:41:36;12.90;70.30
59881;DHT22;45751;51.380;10.326;2024-03-02T13:44:03;12.90;70.10
59881;DHT22;45751;51.380;10.326;2024-03-02T13:46:29;12.90;69.20
59881;DHT22;45751;51.380;10.326;2024-03-02T13:48:55;13.00;69.90
59881;DHT22;45751;51.380;10.326;2024-03-02T13:51:24;13.00;69.10
59881;DHT22;45751;51.380;10.326;2024-03-02T13:53:50;13.10;68.50
59881;DHT22;45751;51.380;10.326;2024-03-02T13:56:16;13.10;68.40
59881;DHT22;45751;51.380;10.326;2024-03-02T13:58:42;13.20;68.10
59881;DHT22;45751;51.380;10.326;2024-03-02T14:01:09;13.30;67.00
59881;DHT22;45751;51.380;10.326;2024-03-02T14:03:35;13.30;66.20
59881;DHT22;45751;51.380;10.326;2024-03-02T14:06:00;13.30;65.90
59881;DHT22;45751;51.380;10.326;2024-03-02T14:08:26;13.40;66.30
59881;DHT22;45751;51.380;10.326;2024-03-02T14:10:52;13.40;66.00
59881;DHT22;45751;51.380;10.326;2024-03-02T14:13:18;13.40;66.40
59881;DHT22;45751;51.380;10.326;2024-03-02T14:15:44;13.50;66.80
59881;DHT22;45751;51.380;10.326;2024-03-02T14:18:11;13.60;67.00
59881;DHT22;45751;51.380;10.326;2024-03-02T14:20:37;13.70;66.90
59881;DHT22;45751;51.380;10.326;2024-03-02T14:23:03;13.80;67.40
59881;DHT22;45751;51.380;10.326;2024-03-02T14:25:30;14.00;66.70
59881;DHT22;45751;51.380;10.326;2024-03-02T14:27:59;14.10;65.90
59881;DHT22;45751;51.380;10.326;2024-03-02T14:30:25;14.10;64.50
59881;DHT22;45751;51.380;10.326;2024-03-02T14:32:51;14.20;63.90
59881;DHT22;45751;51.380;10.326;2024-03-02T14:35:17;14.30;63.60
59881;DHT22;45751;51.380;10.326;2024-03-02T14:37:42;14.50;63.60
59881;DHT22;45751;51.380;10.326;2024-03-02T14:40:09;14.70;62.90
59881;DHT22;45751;51.380;10.326;2024-03-02T14:42:35;14.90;62.20
59881;DHT22;45751;51.380;10.326;2024-03-02T14:45:02;15.00;60.80
59881;DHT22;45751;51.380;10.326;2024-03-02T14:47:31;15.10;59.70
59881;DHT22;45751;51.380;10.326;2024-03-02T14:49:58;15.10;58.80
59881;DHT22;45751;51.380;10.326;2024-03-02T14:52:24;15.10;59.20
59881;DHT22;45751;51.380;10.326;2024-03-02T14:54:49;15.20;59.20
59881;DHT22;45751;51.380;10.326;2024-03-02T14:57:15;15.20;58.90
59881;DHT22;45751;51.380;10.326;2024-03-02T14:59:41;15.20;59.10
59881;DHT22;45751;51.380;10.326;2024-03-02T15:02:08;15.20;58.90
59881;DHT22;45751;51.380;10.326;2024-03-02T15:04:34;15.30;59.10
59881;DHT22;45751;51.380;10.326;2024-03-02T15:07:00;15.30;59.30
59881;DHT22;45751;51.380;10.326;2024-03-02T15:09:26;15.30;59.40
59881;DHT22;45751;51.380;10.326;2024-03-02T15:11:51;15.30;60.70
59881;DHT22;45751;51.380;10.326;2024-03-02T15:14:17;15.40;59.70
59881;DHT22;45751;51.380;10.326;2024-03-02T15:16:43;15.50;59.40
59881;DHT22;45751;51.380;10.326;2024-03-02T15:19:09;15.60;59.70
59881;DHT22;45751;51.380;10.326;2024-03-02T15:21:35;15.70;59.00
59881;DHT22;45751;51.380;10.326;2024-03-02T15:24:01;15.80;59.80
59881;DHT22;45751;51.380;10.326;2024-03-02T15:26:26;15.90;58.10
59881;DHT22;45751;51.380;10.326;2024-03-02T15:28:52;15.90;57.40
59881;DHT22;45751;51.380;10.326;2024-03-02T15:31:20;15.90;57.30
59881;DHT22;45751;51.380;10.326;2024-03-02T15:33:46;16.00;57.20